createdAt,value
2023-05-02T00:01:39.886Z,2.85
2023-05-02T00:04:11.477Z,2.84
2023-05-02T00:06:43.208Z,2.80
2023-05-02T00:09:15.780Z,2.76
2023-05-02T00:11:47.246Z,2.71
2023-05-02T00:14:18.624Z,2.66
2023-05-02T00:16:50.100Z,2.60
2023-05-02T00:19:21.595Z,2.55
2023-05-02T00:21:53.419Z,2.50
2023-05-02T00:24:24.810Z,2.45
2023-05-02T00:26:56.386Z,2.40
2023-05-02T00:29:27.759Z,2.35
2023-05-02T00:31:59.137Z,2.31
2023-05-02T00:34:31.607Z,2.30
2023-05-02T00:37:03.121Z,2.27
2023-05-02T00:39:35.299Z,2.26
2023-05-02T00:42:06.860Z,2.26
2023-05-02T00:44:38.600Z,2.25
2023-05-02T00:47:09.939Z,2.25
2023-05-02T00:49:41.311Z,2.23
2023-05-02T00:52:12.676Z,2.23
2023-05-02T00:54:45.132Z,2.22
2023-05-02T00:57:16.604Z,2.18
2023-05-02T00:59:48.030Z,2.18
2023-05-02T01:02:24.010Z,2.16
2023-05-02T01:04:57.705Z,2.13
2023-05-02T01:07:33.219Z,2.10
2023-05-02T01:10:07.853Z,2.09
2023-05-02T01:12:42.587Z,2.08
2023-05-02T01:15:17.963Z,2.07
2023-05-02T01:17:50.638Z,2.06
2023-05-02T01:20:24.286Z,2.04
2023-05-02T01:22:58.275Z,2.01
2023-05-02T01:25:32.889Z,1.98
2023-05-02T01:28:06.384Z,1.92
2023-05-02T01:30:39.836Z,1.85
2023-05-02T01:33:12.547Z,1.77
2023-05-02T01:35:45.013Z,1.70
2023-05-02T01:38:18.578Z,1.64
2023-05-02T01:40:54.095Z,1.59
2023-05-02T01:43:26.035Z,1.54
2023-05-02T01:45:58.757Z,1.48
2023-05-02T01:48:30.413Z,1.43
2023-05-02T01:51:04.281Z,1.40
2023-05-02T01:53:37.063Z,1.39
2023-05-02T01:56:09.059Z,1.38
2023-05-02T01:58:41.425Z,1.37
2023-05-02T02:01:13.952Z,1.38
2023-05-02T02:03:46.925Z,1.40
2023-05-02T02:06:19.187Z,1.40
2023-05-02T02:08:51.145Z,1.39
2023-05-02T02:11:25.044Z,1.38
2023-05-02T02:13:58.957Z,1.37
2023-05-02T02:16:34.306Z,1.38
2023-05-02T02:19:07.661Z,1.38
2023-05-02T02:21:41.302Z,1.40
2023-05-02T02:24:13.235Z,1.42
2023-05-02T02:26:44.896Z,1.48
2023-05-02T02:29:16.570Z,1.53
2023-05-02T02:31:48.110Z,1.56
2023-05-02T02:34:19.697Z,1.59
2023-05-02T02:36:52.745Z,1.61
2023-05-02T02:39:27.497Z,1.63
2023-05-02T02:42:03.807Z,1.65
2023-05-02T02:44:38.223Z,1.69
2023-05-02T02:47:12.335Z,1.74
2023-05-02T02:49:48.562Z,1.80
2023-05-02T02:52:22.263Z,1.86
2023-05-02T02:54:55.288Z,1.92
2023-05-02T02:57:28.242Z,1.96
2023-05-02T03:00:03.719Z,2.00
2023-05-02T03:02:37.308Z,2.05
2023-05-02T03:05:09.512Z,2.09
2023-05-02T03:07:41.067Z,2.13
2023-05-02T03:10:12.663Z,2.19
2023-05-02T03:12:44.552Z,2.25
2023-05-02T03:15:19.582Z,2.28
2023-05-02T03:17:51.232Z,2.33
2023-05-02T03:20:23.755Z,2.41
2023-05-02T03:22:55.278Z,2.46
2023-05-02T03:25:26.796Z,2.52
2023-05-02T03:27:59.464Z,2.59
2023-05-02T03:30:31.141Z,2.66
2023-05-02T03:33:04.909Z,2.74
2023-05-02T03:35:36.522Z,2.82
2023-05-02T03:38:08.024Z,2.89
2023-05-02T03:40:40.577Z,2.97
2023-05-02T03:43:13.423Z,3.05
2023-05-02T03:45:46.147Z,3.13
2023-05-02T03:48:18.845Z,3.23
2023-05-02T03:50:54.547Z,3.31
2023-05-02T03:53:26.118Z,3.40
2023-05-02T03:55:58.340Z,3.48
2023-05-02T03:58:31.516Z,3.56
2023-05-02T04:01:03.751Z,3.65
2023-05-02T04:03:35.617Z,3.74
2023-05-02T04:06:08.430Z,3.82
2023-05-02T04:08:40.110Z,3.90
2023-05-02T04:11:11.768Z,3.95
2023-05-02T04:13:43.348Z,4.04
2023-05-02T04:16:15.876Z,4.11
2023-05-02T04:18:47.480Z,4.19
2023-05-02T04:21:19.379Z,4.27
2023-05-02T04:23:51.707Z,4.36
2023-05-02T04:26:23.766Z,4.26
2023-05-02T04:28:56.954Z,4.51
2023-05-02T04:31:28.912Z,4.59
2023-05-02T04:34:00.512Z,4.67
2023-05-02T04:36:36.028Z,4.78
2023-05-02T04:39:08.574Z,4.89
2023-05-02T04:41:41.824Z,5.05
2023-05-02T04:44:13.385Z,5.17
2023-05-02T04:46:46.212Z,5.26
2023-05-02T04:49:18.308Z,5.37
2023-05-02T04:51:49.901Z,5.45
2023-05-02T04:54:21.488Z,5.55
2023-05-02T04:56:53.068Z,5.66
2023-05-02T04:59:25.067Z,5.78
2023-05-02T05:01:57.144Z,5.90
2023-05-02T05:04:29.644Z,6.00
2023-05-02T05:07:01.767Z,6.08
2023-05-02T05:09:33.448Z,6.18
2023-05-02T05:12:05.458Z,6.26
2023-05-02T05:14:38.862Z,6.36
2023-05-02T05:17:11.610Z,6.46
2023-05-02T05:19:47.347Z,6.57
2023-05-02T05:22:22.351Z,6.67
2023-05-02T05:24:54.717Z,6.74
2023-05-02T05:27:27.895Z,6.84
2023-05-02T05:29:59.782Z,6.93
2023-05-02T05:32:34.230Z,7.07
2023-05-02T05:35:06.616Z,7.20
2023-05-02T05:37:39.648Z,7.30
2023-05-02T05:40:13.008Z,7.41
2023-05-02T05:42:46.422Z,7.57
2023-05-02T05:45:20.375Z,7.70
2023-05-02T05:47:52.300Z,7.77
2023-05-02T05:50:24.224Z,7.79
2023-05-02T05:52:58.782Z,7.81
2023-05-02T05:55:30.561Z,7.92
2023-05-02T05:58:02.093Z,8.02
2023-05-02T06:00:35.274Z,8.13
2023-05-02T06:03:09.541Z,8.24
2023-05-02T06:05:40.869Z,8.35
2023-05-02T06:08:15.306Z,8.36
2023-05-02T06:10:49.602Z,8.38
2023-05-02T06:13:26.359Z,8.44
2023-05-02T06:15:59.490Z,8.56
2023-05-02T06:18:31.116Z,8.64
2023-05-02T06:21:06.058Z,8.68
2023-05-02T06:23:40.688Z,8.72
2023-05-02T06:26:12.415Z,8.70
2023-05-02T06:28:44.516Z,8.70
2023-05-02T06:31:16.595Z,8.70
2023-05-02T06:33:48.212Z,8.78
2023-05-02T06:36:19.720Z,8.88
2023-05-02T06:38:51.389Z,8.92
2023-05-02T06:41:23.675Z,8.99
2023-05-02T06:43:55.409Z,9.33
2023-05-02T06:46:28.357Z,10.28
2023-05-02T06:48:59.974Z,11.84
2023-05-02T06:51:32.023Z,13.80
2023-05-02T06:54:03.824Z,16.04
2023-05-02T06:56:35.370Z,17.87
2023-05-02T06:59:06.901Z,18.65
2023-05-02T07:01:38.706Z,19.58
2023-05-02T07:04:10.374Z,20.13
2023-05-02T07:06:42.300Z,20.19
2023-05-02T07:09:13.934Z,19.95
2023-05-02T07:11:45.506Z,20.16
2023-05-02T07:14:17.152Z,21.43
2023-05-02T07:16:48.867Z,22.70
2023-05-02T07:19:20.481Z,23.86
2023-05-02T07:21:51.962Z,24.40
2023-05-02T07:24:23.471Z,25.39
2023-05-02T07:29:26.267Z,26.27
2023-05-02T07:31:57.868Z,25.99
2023-05-02T07:34:29.541Z,25.03
2023-05-02T07:37:01.103Z,23.98
2023-05-02T07:39:34.293Z,24.02
2023-05-02T07:42:06.773Z,24.68
2023-05-02T07:44:38.625Z,25.60
2023-05-02T07:47:10.793Z,26.47
2023-05-02T07:49:42.274Z,26.04
2023-05-02T07:52:13.942Z,25.00
2023-05-02T07:54:45.732Z,24.66
2023-05-02T07:57:17.491Z,25.13
2023-05-02T07:59:49.272Z,26.34
2023-05-02T08:02:21.894Z,27.40
2023-05-02T08:04:54.271Z,27.23
2023-05-02T08:07:26.294Z,26.97
2023-05-02T08:09:57.881Z,27.01
2023-05-02T08:12:29.461Z,27.52
2023-05-02T08:15:00.981Z,27.30
2023-05-02T08:17:32.852Z,27.84
2023-05-02T08:20:04.775Z,28.45
2023-05-02T08:22:36.348Z,30.22
2023-05-02T08:25:08.322Z,31.10
2023-05-02T08:27:39.865Z,31.27
2023-05-02T08:30:11.903Z,29.82
2023-05-02T08:32:43.516Z,28.91
2023-05-02T08:35:15.127Z,28.18
2023-05-02T08:37:46.679Z,27.96
2023-05-02T08:40:27.316Z,28.30
2023-05-02T08:42:52.961Z,29.75
2023-05-02T08:45:24.900Z,31.35
2023-05-02T08:47:57.455Z,31.41
2023-05-02T08:50:29.984Z,30.55
2023-05-02T08:53:01.828Z,30.45
2023-05-02T08:55:33.837Z,30.57
2023-05-02T08:58:05.338Z,31.54
2023-05-02T09:00:39.697Z,32.86
2023-05-02T09:03:14.000Z,33.51
2023-05-02T09:05:47.292Z,33.24
2023-05-02T09:08:21.813Z,32.83
2023-05-02T09:10:53.529Z,32.24
2023-05-02T09:13:32.023Z,31.27
2023-05-02T09:16:04.507Z,31.74
2023-05-02T09:18:36.576Z,30.98
2023-05-02T09:21:09.371Z,29.89
2023-05-02T09:23:41.697Z,29.67
2023-05-02T09:26:14.324Z,31.14
2023-05-02T09:28:46.650Z,32.36
2023-05-02T09:31:26.834Z,33.38
2023-05-02T09:33:52.218Z,32.95
2023-05-02T09:36:24.077Z,32.00
2023-05-02T09:38:57.148Z,32.82
2023-05-02T09:41:30.119Z,33.84
2023-05-02T09:44:01.640Z,33.44
2023-05-02T09:46:35.697Z,32.22
2023-05-02T09:49:07.590Z,31.57
2023-05-02T09:51:39.367Z,32.41
2023-05-02T09:54:11.596Z,33.64
2023-05-02T09:56:56.730Z,34.72
2023-05-02T09:59:28.457Z,35.98
2023-05-02T10:02:00.752Z,37.46
2023-05-02T10:04:33.649Z,38.60
2023-05-02T10:07:06.819Z,38.47
2023-05-02T10:09:39.790Z,36.73
2023-05-02T10:12:11.340Z,35.89
2023-05-02T10:14:44.359Z,34.50
2023-05-02T10:17:17.628Z,32.91
2023-05-02T10:19:52.169Z,33.14
2023-05-02T10:22:25.050Z,32.62
2023-05-02T10:24:58.255Z,32.03
2023-05-02T10:27:30.717Z,32.80
2023-05-02T10:30:04.307Z,32.57
2023-05-02T10:32:37.090Z,33.74
2023-05-02T10:35:09.286Z,34.21
2023-05-02T10:37:42.925Z,33.71
2023-05-02T10:40:14.783Z,33.40
2023-05-02T10:42:47.898Z,32.93
2023-05-02T10:45:32.865Z,33.00
2023-05-02T10:48:18.648Z,33.80
2023-05-02T10:50:52.045Z,34.20
2023-05-02T10:53:27.651Z,34.20
2023-05-02T10:56:26.391Z,34.56
2023-05-02T10:58:59.734Z,34.02
2023-05-02T11:01:41.901Z,32.39
2023-05-02T11:04:13.464Z,31.63
2023-05-02T11:07:02.303Z,31.00
2023-05-02T11:09:36.775Z,31.27
2023-05-02T11:12:08.704Z,32.51
2023-05-02T11:14:52.414Z,34.70
2023-05-02T11:17:25.124Z,35.56
2023-05-02T11:20:30.161Z,34.93
2023-05-02T11:23:04.038Z,34.21
2023-05-02T11:25:38.940Z,33.46
2023-05-02T11:28:12.033Z,32.83
2023-05-02T11:30:44.967Z,33.06
2023-05-02T11:33:17.773Z,33.51
2023-05-02T11:35:49.844Z,33.52
2023-05-02T11:38:22.516Z,33.18
2023-05-02T11:40:55.432Z,32.81
2023-05-02T11:43:29.372Z,33.06
2023-05-02T11:46:02.347Z,31.51
2023-05-02T11:48:34.243Z,31.16
2023-05-02T11:51:07.470Z,31.19
2023-05-02T11:53:40.658Z,31.41
2023-05-02T11:56:12.365Z,33.13
2023-05-02T11:58:44.451Z,34.24
2023-05-02T12:01:16.533Z,35.63
2023-05-02T12:03:49.685Z,36.65
2023-05-02T12:06:21.744Z,37.23
2023-05-02T12:08:55.013Z,36.35
2023-05-02T12:11:27.777Z,34.79
2023-05-02T12:14:02.613Z,33.25
2023-05-02T12:16:38.518Z,32.32
2023-05-02T12:19:13.180Z,32.72
2023-05-02T12:25:25.974Z,34.98
2023-05-02T12:28:46.707Z,32.49
2023-05-02T12:31:22.077Z,31.13
2023-05-02T12:33:55.361Z,29.90
2023-05-02T12:36:28.639Z,30.51
2023-05-02T12:39:01.666Z,30.72
2023-05-02T12:41:34.306Z,30.79
2023-05-02T12:44:06.416Z,30.21
2023-05-02T12:46:38.088Z,30.18
2023-05-02T12:49:12.355Z,30.41
2023-05-02T12:51:45.726Z,30.22
2023-05-02T12:54:22.696Z,29.93
2023-05-02T12:56:54.502Z,30.90
2023-05-02T13:02:25.228Z,30.52
2023-05-02T13:13:06.278Z,30.85
2023-05-02T13:15:37.829Z,30.67
2023-05-02T13:18:09.587Z,30.59
2023-05-02T13:20:41.328Z,31.50
2023-05-02T13:23:12.897Z,30.41
2023-05-02T13:25:44.440Z,29.32
2023-05-02T13:28:16.023Z,29.36
2023-05-02T13:30:47.685Z,30.12
2023-05-02T13:33:19.516Z,30.33
2023-05-02T13:35:51.126Z,30.32
2023-05-02T13:38:22.592Z,29.89
2023-05-02T13:40:55.880Z,29.33
2023-05-02T13:43:27.670Z,29.22
2023-05-02T13:45:59.355Z,30.09
2023-05-02T13:48:31.015Z,31.19
2023-05-02T13:51:03.793Z,31.72
2023-05-02T13:53:35.943Z,31.29
2023-05-02T13:56:08.112Z,29.40
2023-05-02T13:58:39.697Z,28.65
2023-05-02T14:01:11.350Z,28.76
2023-05-02T14:03:43.206Z,29.21
2023-05-02T14:06:14.865Z,28.83
2023-05-02T14:08:46.466Z,28.61
2023-05-02T14:11:18.044Z,28.39
2023-05-02T14:13:49.590Z,27.88
2023-05-02T14:16:23.814Z,26.96
2023-05-02T14:18:59.350Z,26.52
2023-05-02T14:21:32.617Z,26.32
2023-05-02T14:24:07.417Z,25.93
2023-05-02T14:26:40.490Z,25.73
2023-05-02T14:29:18.428Z,25.53
2023-05-02T14:31:51.216Z,25.98
2023-05-02T14:34:25.776Z,26.77
2023-05-02T14:38:07.778Z,26.46
2023-05-02T14:40:14.618Z,26.04
2023-05-02T14:42:59.952Z,25.30
2023-05-02T14:45:35.264Z,25.24
2023-05-02T14:48:14.321Z,25.67
2023-05-02T14:50:51.063Z,25.49
2023-05-02T14:53:25.322Z,24.85
2023-05-02T14:55:56.939Z,24.53
2023-05-02T14:58:28.500Z,24.83
2023-05-02T15:01:00.262Z,24.78
2023-05-02T15:03:32.062Z,24.47
2023-05-02T15:06:03.874Z,24.47
2023-05-02T15:08:37.392Z,24.78
2023-05-02T15:11:08.820Z,24.70
2023-05-02T15:13:56.714Z,24.88
2023-05-02T15:16:24.253Z,24.75
2023-05-02T15:18:55.061Z,24.60
2023-05-02T15:21:27.144Z,23.97
2023-05-02T15:23:59.059Z,22.94
2023-05-02T15:26:49.523Z,22.27
2023-05-02T15:29:22.100Z,21.62
2023-05-02T15:31:54.653Z,21.48
2023-05-02T15:34:26.195Z,21.32
2023-05-02T15:36:59.176Z,21.09
2023-05-02T15:39:30.834Z,20.93
2023-05-02T15:42:03.835Z,20.77
2023-05-02T15:44:39.276Z,20.49
2023-05-02T15:47:10.353Z,20.10
2023-05-02T15:49:55.900Z,19.70
2023-05-02T15:52:35.708Z,19.20
2023-05-02T15:55:16.655Z,18.57
2023-05-02T15:57:55.101Z,18.46
2023-05-02T16:00:31.151Z,18.11
2023-05-02T16:03:04.060Z,17.84
2023-05-02T16:05:36.218Z,17.76
2023-05-02T16:08:08.005Z,17.60
2023-05-02T16:10:41.993Z,17.50
2023-05-02T16:13:13.651Z,17.24
2023-05-02T16:15:45.377Z,17.08
2023-05-02T16:18:17.035Z,17.14
2023-05-02T16:20:54.389Z,17.27
2023-05-02T16:23:26.268Z,17.33
2023-05-02T16:26:02.000Z,17.24
2023-05-02T16:28:33.830Z,17.25
2023-05-02T16:31:08.173Z,17.01
2023-05-02T16:33:39.859Z,16.71
2023-05-02T16:36:11.959Z,16.45
2023-05-02T16:38:43.919Z,16.27
2023-05-02T16:41:15.575Z,16.05
2023-05-02T16:43:48.521Z,15.96
2023-05-02T16:46:20.404Z,15.96
2023-05-02T16:48:52.031Z,15.89
2023-05-02T16:51:23.903Z,15.87
2023-05-02T16:53:58.447Z,15.88
2023-05-02T16:56:43.141Z,15.77
2023-05-02T16:59:16.924Z,15.68
2023-05-02T17:01:49.871Z,15.57
2023-05-02T17:04:25.666Z,15.47
2023-05-02T17:06:57.333Z,15.33
2023-05-02T17:09:29.087Z,15.22
2023-05-02T17:12:07.800Z,15.18
2023-05-02T17:14:42.931Z,15.13
2023-05-02T17:17:14.527Z,14.98
2023-05-02T17:19:58.793Z,14.84
2023-05-02T17:23:01.706Z,14.78
2023-05-02T17:25:53.831Z,14.70
2023-05-02T17:28:28.584Z,14.61
2023-05-02T17:31:10.101Z,14.57
2023-05-02T17:33:43.518Z,14.56
2023-05-02T17:36:18.299Z,14.49
2023-05-02T17:38:50.056Z,14.43
2023-05-02T17:41:23.990Z,14.36
2023-05-02T17:43:55.828Z,14.29
2023-05-02T17:46:27.903Z,14.24
2023-05-02T17:49:06.240Z,14.27
2023-05-02T17:52:01.514Z,14.20
2023-05-02T17:54:33.862Z,14.16
2023-05-02T17:57:05.704Z,14.12
2023-05-02T17:59:41.633Z,14.07
2023-05-02T18:02:17.944Z,14.06
2023-05-02T18:04:50.064Z,14.06
2023-05-02T18:07:25.605Z,14.01
2023-05-02T18:09:57.447Z,14.00
2023-05-02T18:12:29.593Z,13.96
2023-05-02T18:15:02.244Z,13.90
2023-05-02T18:17:35.378Z,13.90
2023-05-02T18:20:09.717Z,13.90
2023-05-02T18:22:41.672Z,13.81
2023-05-02T18:25:15.064Z,13.72
2023-05-02T18:27:46.971Z,13.66
2023-05-02T18:30:20.354Z,13.64
2023-05-02T18:32:52.135Z,13.61
2023-05-02T18:35:24.113Z,13.57
2023-05-02T18:37:56.617Z,13.36
2023-05-02T18:40:32.422Z,13.50
2023-05-02T18:43:04.257Z,13.45
2023-05-02T18:45:36.334Z,13.42
2023-05-02T18:48:08.417Z,13.41
2023-05-02T18:50:40.583Z,13.36
2023-05-02T18:53:12.275Z,13.34
2023-05-02T18:55:43.797Z,13.31
2023-05-02T18:58:15.347Z,13.29
2023-05-02T19:00:49.018Z,13.25
2023-05-02T19:03:22.389Z,13.19
2023-05-02T19:05:54.029Z,13.14
2023-05-02T19:08:25.838Z,13.12
2023-05-02T19:10:57.551Z,13.06
2023-05-02T19:13:31.673Z,13.04
2023-05-02T19:16:10.324Z,13.00
2023-05-02T19:26:32.265Z,12.97
2023-05-02T22:25:24.497Z,11.23
2023-05-02T22:28:00.219Z,11.17
2023-05-02T22:30:32.028Z,11.13
2023-05-02T22:33:04.251Z,11.10
2023-05-02T22:35:36.054Z,11.08
2023-05-02T22:38:10.363Z,11.11
2023-05-02T22:40:42.189Z,11.05
2023-05-02T22:43:14.228Z,11.02
2023-05-02T22:45:50.166Z,10.98
2023-05-02T22:48:21.923Z,10.96
2023-05-02T22:50:54.631Z,10.91
2023-05-02T22:53:26.728Z,10.89
2023-05-02T22:55:58.561Z,10.87
2023-05-02T22:58:30.852Z,10.85
2023-05-02T23:01:06.280Z,10.83
2023-05-02T23:03:41.502Z,10.83
2023-05-02T23:06:14.301Z,10.83
2023-05-02T23:08:49.152Z,10.79
2023-05-02T23:11:21.537Z,10.77
2023-05-02T23:13:55.180Z,10.78
2023-05-02T23:16:27.330Z,10.75
2023-05-02T23:18:59.576Z,10.75
2023-05-02T23:21:31.608Z,10.72
2023-05-02T23:24:04.835Z,10.73
2023-05-02T23:26:37.897Z,10.70
2023-05-02T23:29:09.785Z,10.65
2023-05-02T23:31:42.052Z,10.61
2023-05-02T23:34:13.898Z,10.58
2023-05-02T23:36:45.775Z,10.59
2023-05-02T23:39:17.372Z,10.54
2023-05-02T23:41:48.902Z,10.51
2023-05-02T23:44:21.272Z,10.48
2023-05-02T23:46:52.849Z,10.47
2023-05-02T23:49:24.537Z,10.43
2023-05-02T23:51:56.078Z,10.40
2023-05-02T23:54:30.855Z,10.38
2023-05-02T23:57:03.418Z,10.36
2023-05-02T23:59:35.234Z,10.39
